createdAt,value
2019-05-10T00:02:43.464Z,99950.08
2019-05-10T00:07:55.261Z,99952.23
2019-05-10T00:13:01.865Z,99956.03
2019-05-10T00:17:57.787Z,99960.47
2019-05-10T00:22:51.923Z,99954.70
2019-05-10T00:27:45.885Z,99962.23
2019-05-10T00:32:39.792Z,99958.91
2019-05-10T00:37:33.793Z,99952.80
2019-05-10T00:42:27.885Z,99950.70
2019-05-10T00:47:21.877Z,99954.86
2019-05-10T00:52:15.877Z,99957.82
2019-05-10T00:57:09.863Z,99961.19
2019-05-10T01:02:03.869Z,99963.53
2019-05-10T01:06:57.808Z,99964.55
2019-05-10T01:11:51.555Z,99968.13
2019-05-10T01:16:45.578Z,99972.06
2019-05-10T01:21:39.693Z,99969.05
2019-05-10T01:26:34.023Z,99980.46
2019-05-10T01:31:28.202Z,99983.40
2019-05-10T01:36:24.569Z,99990.08
2019-05-10T01:41:18.939Z,99992.05
2019-05-10T01:46:13.162Z,99994.09
2019-05-10T01:51:07.008Z,99995.62
2019-05-10T01:56:01.140Z,99993.53
2019-05-10T02:00:55.107Z,100002.73
2019-05-10T02:05:49.207Z,100006.08
2019-05-10T02:10:43.321Z,100005.45
2019-05-10T02:15:37.123Z,100006.27
2019-05-10T02:20:31.283Z,100006.14
2019-05-10T02:25:25.341Z,100005.77
2019-05-10T02:30:19.882Z,100013.66
2019-05-10T02:35:13.811Z,100007.56
2019-05-10T02:40:07.992Z,100016.16
2019-05-10T02:45:02.255Z,100013.68
2019-05-10T02:49:58.980Z,100011.50
2019-05-10T02:54:52.314Z,100014.52
2019-05-10T02:59:48.606Z,100017.87
2019-05-10T03:04:45.320Z,100023.25
2019-05-10T03:09:39.368Z,100025.50
2019-05-10T03:14:40.590Z,100030.20
2019-05-10T03:19:35.581Z,100038.45
2019-05-10T03:24:29.490Z,100033.13
2019-05-10T03:29:23.459Z,100043.23
2019-05-10T03:34:17.546Z,100053.78
2019-05-10T03:39:11.673Z,100059.12
2019-05-10T03:44:05.758Z,100063.47
2019-05-10T03:48:59.714Z,100071.05
2019-05-10T03:53:54.105Z,100070.08
2019-05-10T03:58:47.912Z,100065.86
2019-05-10T04:03:42.009Z,100070.66
2019-05-10T04:08:36.015Z,100078.99
2019-05-10T04:13:29.893Z,100081.20
2019-05-10T04:18:23.660Z,100086.79
2019-05-10T04:23:17.673Z,100092.25
2019-05-10T04:28:12.058Z,100097.20
2019-05-10T04:33:05.875Z,100102.03
2019-05-10T04:37:59.978Z,100108.98
2019-05-10T04:42:54.018Z,100115.41
2019-05-10T04:47:48.160Z,100120.20
2019-05-10T04:52:42.518Z,100124.66
2019-05-10T04:57:49.727Z,100124.55
2019-05-10T05:02:32.387Z,100141.77
2019-05-10T05:07:26.448Z,100145.69
2019-05-10T05:12:20.535Z,100144.20
2019-05-10T05:17:14.552Z,100147.80
2019-05-10T05:22:08.657Z,100149.46
2019-05-10T05:27:02.547Z,100150.83
2019-05-10T05:32:01.003Z,100156.08
2019-05-10T05:36:52.361Z,100159.80
2019-05-10T05:41:51.780Z,100169.06
2019-05-10T05:46:42.216Z,100168.64
2019-05-10T05:51:37.221Z,100174.48
2019-05-10T05:56:31.197Z,100179.34
2019-05-10T06:01:29.245Z,100186.16
2019-05-10T06:06:23.483Z,100185.52
2019-05-10T06:11:17.970Z,100198.57
2019-05-10T06:16:14.526Z,100209.09
2019-05-10T06:21:07.912Z,100211.06
2019-05-10T06:26:02.103Z,100210.84
2019-05-10T06:30:56.526Z,100220.56
2019-05-10T06:35:50.612Z,100219.94
2019-05-10T06:40:47.521Z,100220.78
2019-05-10T06:45:40.452Z,100229.00
2019-05-10T06:50:34.501Z,100238.81
2019-05-10T06:55:28.601Z,100244.75
2019-05-10T07:00:22.918Z,100247.73
2019-05-10T07:05:16.907Z,100258.67
2019-05-10T07:10:18.694Z,100271.08
2019-05-10T07:15:09.793Z,100279.31
2019-05-10T07:20:03.805Z,100293.52
2019-05-10T07:25:04.457Z,100289.05
2019-05-10T07:29:53.719Z,100299.67
2019-05-10T07:34:56.287Z,100307.55
2019-05-10T07:39:43.574Z,100314.06
2019-05-10T07:44:41.497Z,100324.17
2019-05-10T07:49:33.175Z,100329.44
2019-05-10T07:54:27.281Z,100337.84
2019-05-10T07:59:25.303Z,100344.16
2019-05-10T08:04:21.938Z,100353.62
2019-05-10T08:09:13.049Z,100357.78
2019-05-10T08:14:11.058Z,100354.08
2019-05-10T08:19:02.884Z,100362.59
2019-05-10T08:23:59.118Z,100361.20
2019-05-10T08:28:52.748Z,100367.22
2019-05-10T08:33:56.083Z,100381.23
2019-05-10T08:38:46.745Z,100385.36
2019-05-10T08:43:40.861Z,100395.45
2019-05-10T08:48:43.363Z,100399.55
2019-05-10T08:53:33.718Z,100396.61
2019-05-10T08:58:31.670Z,100400.47
2019-05-10T09:03:23.545Z,100413.09
2019-05-10T09:08:20.330Z,100416.87
2019-05-10T09:13:13.252Z,100415.39
2019-05-10T09:18:07.642Z,100416.97
2019-05-10T09:23:02.482Z,100424.09
2019-05-10T09:28:04.512Z,100431.11
2019-05-10T09:32:52.716Z,100437.83
2019-05-10T09:37:47.711Z,100448.61
2019-05-10T09:42:43.545Z,100459.08
2019-05-10T09:47:37.984Z,100469.09
2019-05-10T09:52:31.938Z,100470.55
2019-05-10T09:57:27.829Z,100473.11
2019-05-10T10:02:21.874Z,100481.14
2019-05-10T10:07:18.948Z,100483.20
2019-05-10T10:12:12.755Z,100489.77
2019-05-10T10:17:08.259Z,100498.57
2019-05-10T10:22:05.772Z,100502.94
2019-05-10T10:26:59.398Z,100498.17
2019-05-10T10:31:58.258Z,100500.45
2019-05-10T10:36:49.750Z,100496.86
2019-05-10T10:41:43.858Z,100492.43
2019-05-10T10:46:37.751Z,100497.83
2019-05-10T10:51:34.132Z,100482.26
2019-05-10T10:56:27.771Z,100475.42
2019-05-10T11:01:25.554Z,100473.11
2019-05-10T11:06:17.613Z,100481.56
2019-05-10T11:11:11.514Z,100488.07
2019-05-10T11:16:14.217Z,100477.94
2019-05-10T11:21:02.082Z,100476.80
2019-05-10T11:25:56.806Z,100473.45
2019-05-10T11:30:51.331Z,100475.53
2019-05-10T11:35:45.321Z,100483.45
2019-05-10T11:40:41.711Z,100484.23
2019-05-10T11:45:36.657Z,100490.84
2019-05-10T11:50:35.037Z,100484.05
2019-05-10T11:55:27.117Z,100497.52
2019-05-10T12:00:29.171Z,100491.78
2019-05-10T12:05:22.819Z,100491.84
2019-05-10T12:10:20.786Z,100490.70
2019-05-10T12:15:13.856Z,100485.51
2019-05-10T12:20:07.318Z,100479.36
2019-05-10T12:25:27.336Z,100489.12
2019-05-10T12:30:00.736Z,100493.79
2019-05-10T12:34:56.412Z,100489.92
2019-05-10T12:39:52.916Z,100486.28
2019-05-10T12:44:47.923Z,100481.80
2019-05-10T12:49:41.531Z,100492.92
2019-05-10T12:54:35.315Z,100495.89
2019-05-10T12:59:29.760Z,100484.45
2019-05-10T13:04:39.573Z,100479.34
2019-05-10T13:09:36.127Z,100475.11
2019-05-10T13:14:17.834Z,100481.79
2019-05-10T13:19:14.194Z,100488.13
2019-05-10T13:24:07.551Z,100481.33
2019-05-10T13:29:02.144Z,100493.78
2019-05-10T13:33:57.576Z,100482.95
2019-05-10T13:38:51.481Z,100482.27
2019-05-10T13:43:45.660Z,100487.80
2019-05-10T13:48:39.799Z,100481.47
2019-05-10T13:53:33.784Z,100488.63
2019-05-10T13:58:27.756Z,100492.56
2019-05-10T14:03:21.934Z,100483.91
2019-05-10T14:08:16.161Z,100476.70
2019-05-10T14:13:10.165Z,100471.33
2019-05-10T14:18:04.124Z,100477.41
2019-05-10T14:22:59.001Z,100472.81
2019-05-10T14:27:53.169Z,100472.81
2019-05-10T14:32:47.062Z,100483.20
2019-05-10T14:37:40.991Z,100478.78
2019-05-10T14:42:35.405Z,100477.59
2019-05-10T14:47:29.620Z,100468.78
2019-05-10T14:52:24.046Z,100475.85
2019-05-10T14:57:18.465Z,100481.45
2019-05-10T15:02:16.801Z,100477.92
2019-05-10T15:07:14.344Z,100478.09
2019-05-10T15:12:10.111Z,100482.83
2019-05-10T15:17:01.485Z,100488.08
2019-05-10T15:21:55.574Z,100486.59
2019-05-10T15:26:49.643Z,100480.69
2019-05-10T15:31:43.728Z,100484.06
2019-05-10T15:36:37.830Z,100477.06
2019-05-10T15:41:31.819Z,100468.07
2019-05-10T15:46:35.358Z,100471.73
2019-05-10T15:56:18.212Z,100485.30
2019-05-10T15:59:23.402Z,100475.55
2019-05-10T16:01:14.424Z,100476.03
2019-05-10T16:06:08.834Z,100468.75
2019-05-10T16:11:03.359Z,100477.70
2019-05-10T16:15:58.219Z,100491.30
2019-05-10T16:20:52.941Z,100492.27
2019-05-10T16:25:48.499Z,100480.02
2019-05-10T16:30:43.136Z,100485.42
2019-05-10T16:35:39.097Z,100491.09
2019-05-10T16:40:33.423Z,100494.40
2019-05-10T16:45:27.483Z,100490.83
2019-05-10T16:50:26.012Z,100496.59
2019-05-10T16:55:17.351Z,100510.12
2019-05-10T17:00:11.661Z,100507.92
2019-05-10T17:05:09.678Z,100501.27
2019-05-10T17:10:01.526Z,100495.27
2019-05-10T17:14:56.377Z,100499.58
2019-05-10T17:19:51.252Z,100495.04
2019-05-10T17:24:45.302Z,100504.66
2019-05-10T17:29:39.207Z,100493.11
2019-05-10T17:34:33.111Z,100505.09
2019-05-10T17:39:32.021Z,100522.05
2019-05-10T17:44:23.277Z,100519.23
2019-05-10T17:49:19.790Z,100526.59
2019-05-10T17:54:13.802Z,100535.17
2019-05-10T17:59:11.888Z,100538.44
2019-05-10T18:04:05.967Z,100534.36
2019-05-10T18:09:00.043Z,100535.97
2019-05-10T18:13:54.154Z,100552.22
2019-05-10T18:18:48.573Z,100559.34
2019-05-10T18:23:43.541Z,100568.92
2019-05-10T18:28:37.347Z,100576.73
2019-05-10T18:33:31.330Z,100577.50
2019-05-10T18:38:25.547Z,100570.38
2019-05-10T18:43:19.534Z,100563.77
2019-05-10T18:48:13.528Z,100563.55
2019-05-10T18:53:09.327Z,100555.06
2019-05-10T18:58:03.550Z,100553.93
2019-05-10T19:02:57.565Z,100547.84
2019-05-10T19:08:03.018Z,100549.42
2019-05-10T19:12:53.726Z,100549.22
2019-05-10T19:17:45.869Z,100553.62
2019-05-10T19:22:41.247Z,100556.06
2019-05-10T19:27:38.738Z,100555.05
2019-05-10T19:32:31.816Z,100564.78
2019-05-10T19:37:30.127Z,100550.38
2019-05-10T19:42:21.848Z,100556.13
2019-05-10T19:47:17.778Z,100589.67
2019-05-10T19:52:11.625Z,100594.65
2019-05-10T19:57:15.086Z,100584.59
2019-05-10T20:02:01.601Z,100590.73
2019-05-10T20:06:55.728Z,100589.46
2019-05-10T20:11:51.235Z,100588.96
2019-05-10T20:16:52.908Z,100572.30
2019-05-10T20:21:40.968Z,100562.49
2019-05-10T20:26:35.041Z,100580.61
2019-05-10T20:31:30.689Z,100611.22
2019-05-10T20:36:24.905Z,100605.21
2019-05-10T20:41:18.982Z,100590.17
2019-05-10T20:46:12.972Z,100591.56
2019-05-10T20:51:07.791Z,100584.74
2019-05-10T20:56:01.792Z,100581.21
2019-05-10T21:00:55.994Z,100579.82
2019-05-10T21:05:49.851Z,100593.91
2019-05-10T21:10:43.973Z,100575.95
2019-05-10T21:15:37.827Z,100578.81
2019-05-10T21:20:31.923Z,100575.82
2019-05-10T21:25:26.058Z,100567.58
2019-05-10T21:30:20.217Z,100571.27
2019-05-10T21:35:14.558Z,100558.18
2019-05-10T21:40:08.648Z,100549.63
2019-05-10T21:45:02.695Z,100546.80
2019-05-10T21:49:56.615Z,100541.45
2019-05-10T21:54:50.598Z,100544.42
2019-05-10T21:59:44.376Z,100543.33
2019-05-10T22:04:38.398Z,100527.72
2019-05-10T22:09:32.271Z,100538.05
2019-05-10T22:14:26.244Z,100532.09
2019-05-10T22:19:20.135Z,100526.14
2019-05-10T22:24:13.941Z,100521.09
2019-05-10T22:29:07.799Z,100533.31
2019-05-10T22:34:01.697Z,100530.10
2019-05-10T22:39:06.533Z,100528.65
2019-05-10T22:43:51.771Z,100524.00
2019-05-10T22:48:45.812Z,100519.00
2019-05-10T22:53:39.743Z,100508.27
2019-05-10T22:58:33.820Z,100506.13
2019-05-10T23:03:28.373Z,100502.67
2019-05-10T23:08:22.337Z,100495.44
2019-05-10T23:13:16.428Z,100494.27
2019-05-10T23:18:10.539Z,100491.97
2019-05-10T23:23:04.527Z,100491.48
2019-05-10T23:27:58.491Z,100483.90
2019-05-10T23:32:52.517Z,100473.88
2019-05-10T23:37:46.467Z,100489.03
2019-05-10T23:42:40.481Z,100486.64
2019-05-10T23:47:34.796Z,100475.24
2019-05-10T23:52:28.635Z,100477.48
2019-05-10T23:57:29.609Z,100460.04
